sensor_id;sensor_type;location;lat;lon;timestamp;temperature;humidity
23715;DHT22;12036;50.858;4.472;2023-09-18T00:02:25;20.10;99.90
23715;DHT22;12036;50.858;4.472;2023-09-18T00:04:52;20.00;99.90
23715;DHT22;12036;50.858;4.472;2023-09-18T00:07:17;20.10;99.90
23715;DHT22;12036;50.858;4.472;2023-09-18T00:09:43;20.10;99.90
23715;DHT22;12036;50.858;4.472;2023-09-18T00:12:09;20.10;99.90
23715;DHT22;12036;50.858;4.472;2023-09-18T00:14:36;20.10;99.90
23715;DHT22;12036;50.858;4.472;2023-09-18T00:17:02;20.10;99.90
23715;DHT22;12036;50.858;4.472;2023-09-18T00:19:28;20.10;99.90
23715;DHT22;12036;50.858;4.472;2023-09-18T00:21:53;20.20;99.90
23715;DHT22;12036;50.858;4.472;2023-09-18T00:24:20;20.20;99.90
23715;DHT22;12036;50.858;4.472;2023-09-18T00:26:47;20.30;99.90
23715;DHT22;12036;50.858;4.472;2023-09-18T00:29:13;20.20;99.90
23715;DHT22;12036;50.858;4.472;2023-09-18T00:31:39;20.30;99.90
23715;DHT22;12036;50.858;4.472;2023-09-18T00:34:05;20.40;99.90
23715;DHT22;12036;50.858;4.472;2023-09-18T00:36:30;20.40;99.90
23715;DHT22;12036;50.858;4.472;2023-09-18T00:38:56;20.50;99.90
23715;DHT22;12036;50.858;4.472;2023-09-18T00:41:22;20.50;99.90
23715;DHT22;12036;50.858;4.472;2023-09-18T00:43:47;20.40;99.90
23715;DHT22;12036;50.858;4.472;2023-09-18T00:46:13;20.40;99.90
23715;DHT22;12036;50.858;4.472;2023-09-18T00:48:39;20.20;99.90
23715;DHT22;12036;50.858;4.472;2023-09-18T00:51:06;20.20;99.90
23715;DHT22;12036;50.858;4.472;2023-09-18T00:53:33;20.20;99.90
23715;DHT22;12036;50.858;4.472;2023-09-18T00:56:00;20.20;99.90
23715;DHT22;12036;50.858;4.472;2023-09-18T00:58:26;20.20;99.90
23715;DHT22;12036;50.858;4.472;2023-09-18T01:00:52;20.30;99.90
23715;DHT22;12036;50.858;4.472;2023-09-18T01:03:19;20.30;99.90
23715;DHT22;12036;50.858;4.472;2023-09-18T01:05:46;20.30;99.90
23715;DHT22;12036;50.858;4.472;2023-09-18T01:08:12;20.40;99.90
23715;DHT22;12036;50.858;4.472;2023-09-18T01:11:04;20.40;99.90
23715;DHT22;12036;50.858;4.472;2023-09-18T01:13:35;20.40;99.90
23715;DHT22;12036;50.858;4.472;2023-09-18T01:16:10;20.40;99.90
23715;DHT22;12036;50.858;4.472;2023-09-18T01:18:37;20.40;99.90
23715;DHT22;12036;50.858;4.472;2023-09-18T01:21:02;20.50;99.90
23715;DHT22;12036;50.858;4.472;2023-09-18T01:23:28;20.50;99.90
23715;DHT22;12036;50.858;4.472;2023-09-18T01:25:53;20.50;99.90
23715;DHT22;12036;50.858;4.472;2023-09-18T01:28:19;20.50;99.90
23715;DHT22;12036;50.858;4.472;2023-09-18T01:30:45;20.50;99.90
23715;DHT22;12036;50.858;4.472;2023-09-18T01:33:11;20.40;99.90
23715;DHT22;12036;50.858;4.472;2023-09-18T01:35:37;20.40;99.90
23715;DHT22;12036;50.858;4.472;2023-09-18T01:38:04;20.40;99.90
23715;DHT22;12036;50.858;4.472;2023-09-18T01:40:30;20.40;99.90
23715;DHT22;12036;50.858;4.472;2023-09-18T01:42:56;20.30;99.90
23715;DHT22;12036;50.858;4.472;2023-09-18T01:45:22;20.40;99.90
23715;DHT22;12036;50.858;4.472;2023-09-18T01:47:48;20.40;99.90
23715;DHT22;12036;50.858;4.472;2023-09-18T01:50:13;20.40;99.90
23715;DHT22;12036;50.858;4.472;2023-09-18T01:52:39;20.40;99.90
23715;DHT22;12036;50.858;4.472;2023-09-18T01:55:05;20.40;99.90
23715;DHT22;12036;50.858;4.472;2023-09-18T01:57:31;20.40;99.90
23715;DHT22;12036;50.858;4.472;2023-09-18T01:59:57;20.40;99.90
23715;DHT22;12036;50.858;4.472;2023-09-18T02:02:22;20.40;99.90
23715;DHT22;12036;50.858;4.472;2023-09-18T02:04:49;20.40;99.90
23715;DHT22;12036;50.858;4.472;2023-09-18T02:07:15;20.40;99.90
23715;DHT22;12036;50.858;4.472;2023-09-18T02:09:41;20.40;99.90
23715;DHT22;12036;50.858;4.472;2023-09-18T02:12:06;20.30;99.90
23715;DHT22;12036;50.858;4.472;2023-09-18T02:14:32;20.30;99.90
23715;DHT22;12036;50.858;4.472;2023-09-18T02:16:59;20.30;99.90
23715;DHT22;12036;50.858;4.472;2023-09-18T02:19:25;20.40;99.90
23715;DHT22;12036;50.858;4.472;2023-09-18T02:21:51;20.30;99.90
23715;DHT22;12036;50.858;4.472;2023-09-18T02:24:17;20.30;99.90
23715;DHT22;12036;50.858;4.472;2023-09-18T02:26:43;20.30;99.90
23715;DHT22;12036;50.858;4.472;2023-09-18T02:29:10;20.30;99.90
23715;DHT22;12036;50.858;4.472;2023-09-18T02:31:37;20.20;99.90
23715;DHT22;12036;50.858;4.472;2023-09-18T02:34:03;20.10;99.90
23715;DHT22;12036;50.858;4.472;2023-09-18T02:36:28;20.10;99.90
23715;DHT22;12036;50.858;4.472;2023-09-18T02:38:54;20.00;99.90
23715;DHT22;12036;50.858;4.472;2023-09-18T02:41:20;20.00;99.90
23715;DHT22;12036;50.858;4.472;2023-09-18T02:43:46;20.00;99.90
23715;DHT22;12036;50.858;4.472;2023-09-18T02:46:11;19.90;99.90
23715;DHT22;12036;50.858;4.472;2023-09-18T02:48:37;19.90;99.90
23715;DHT22;12036;50.858;4.472;2023-09-18T02:51:03;19.80;99.90
23715;DHT22;12036;50.858;4.472;2023-09-18T02:53:29;19.90;99.90
23715;DHT22;12036;50.858;4.472;2023-09-18T02:55:56;19.90;99.90
23715;DHT22;12036;50.858;4.472;2023-09-18T02:58:22;19.90;99.90
23715;DHT22;12036;50.858;4.472;2023-09-18T03:00:51;19.80;99.90
23715;DHT22;12036;50.858;4.472;2023-09-18T03:03:18;19.70;99.90
23715;DHT22;12036;50.858;4.472;2023-09-18T03:05:44;19.70;99.90
23715;DHT22;12036;50.858;4.472;2023-09-18T03:08:11;19.70;99.90
23715;DHT22;12036;50.858;4.472;2023-09-18T03:10:39;19.60;99.90
23715;DHT22;12036;50.858;4.472;2023-09-18T03:13:06;19.60;99.90
23715;DHT22;12036;50.858;4.472;2023-09-18T03:15:32;19.60;99.90
23715;DHT22;12036;50.858;4.472;2023-09-18T03:17:58;19.60;99.90
23715;DHT22;12036;50.858;4.472;2023-09-18T03:20:25;19.60;99.90
23715;DHT22;12036;50.858;4.472;2023-09-18T03:22:52;19.60;99.90
23715;DHT22;12036;50.858;4.472;2023-09-18T03:25:18;19.60;99.90
23715;DHT22;12036;50.858;4.472;2023-09-18T03:27:43;19.60;99.90
23715;DHT22;12036;50.858;4.472;2023-09-18T03:30:09;19.60;99.90
23715;DHT22;12036;50.858;4.472;2023-09-18T03:32:38;19.60;99.90
23715;DHT22;12036;50.858;4.472;2023-09-18T03:35:04;19.60;99.90
23715;DHT22;12036;50.858;4.472;2023-09-18T03:37:30;19.60;99.90
23715;DHT22;12036;50.858;4.472;2023-09-18T03:39:55;19.60;99.90
23715;DHT22;12036;50.858;4.472;2023-09-18T03:42:21;19.60;99.90
23715;DHT22;12036;50.858;4.472;2023-09-18T03:44:47;19.60;99.90
23715;DHT22;12036;50.858;4.472;2023-09-18T03:47:12;19.60;99.90
23715;DHT22;12036;50.858;4.472;2023-09-18T03:49:38;19.60;99.90
23715;DHT22;12036;50.858;4.472;2023-09-18T03:52:03;19.60;99.90
23715;DHT22;12036;50.858;4.472;2023-09-18T03:54:29;19.60;99.90
23715;DHT22;12036;50.858;4.472;2023-09-18T03:56:55;19.60;99.90
23715;DHT22;12036;50.858;4.472;2023-09-18T03:59:20;19.60;99.90
23715;DHT22;12036;50.858;4.472;2023-09-18T04:01:46;19.60;99.90
23715;DHT22;12036;50.858;4.472;2023-09-18T04:04:12;19.50;99.90
23715;DHT22;12036;50.858;4.472;2023-09-18T04:06:42;19.50;99.90
23715;DHT22;12036;50.858;4.472;2023-09-18T04:09:08;19.60;99.90
23715;DHT22;12036;50.858;4.472;2023-09-18T04:11:33;19.60;99.90
23715;DHT22;12036;50.858;4.472;2023-09-18T04:14:01;19.60;99.90
23715;DHT22;12036;50.858;4.472;2023-09-18T04:16:27;19.60;99.90
23715;DHT22;12036;50.858;4.472;2023-09-18T04:19:03;19.60;99.90
23715;DHT22;12036;50.858;4.472;2023-09-18T04:21:29;19.60;99.90
23715;DHT22;12036;50.858;4.472;2023-09-18T04:23:55;19.50;99.90
23715;DHT22;12036;50.858;4.472;2023-09-18T04:26:26;19.50;99.90
23715;DHT22;12036;50.858;4.472;2023-09-18T04:28:59;19.50;99.90
23715;DHT22;12036;50.858;4.472;2023-09-18T04:31:25;19.50;99.90
23715;DHT22;12036;50.858;4.472;2023-09-18T04:33:50;19.40;99.90
23715;DHT22;12036;50.858;4.472;2023-09-18T04:36:16;19.40;99.90
23715;DHT22;12036;50.858;4.472;2023-09-18T04:38:41;19.40;99.90
23715;DHT22;12036;50.858;4.472;2023-09-18T04:41:07;19.30;99.90
23715;DHT22;12036;50.858;4.472;2023-09-18T04:43:34;19.30;99.90
23715;DHT22;12036;50.858;4.472;2023-09-18T04:46:00;19.30;99.90
23715;DHT22;12036;50.858;4.472;2023-09-18T04:48:29;19.30;99.90
23715;DHT22;12036;50.858;4.472;2023-09-18T04:50:55;19.20;99.90
23715;DHT22;12036;50.858;4.472;2023-09-18T04:53:21;19.30;99.90
23715;DHT22;12036;50.858;4.472;2023-09-18T04:55:47;19.30;99.90
23715;DHT22;12036;50.858;4.472;2023-09-18T04:58:15;19.20;99.90
23715;DHT22;12036;50.858;4.472;2023-09-18T05:00:41;19.20;99.90
23715;DHT22;12036;50.858;4.472;2023-09-18T05:03:07;19.20;99.90
23715;DHT22;12036;50.858;4.472;2023-09-18T05:05:34;19.20;99.90
23715;DHT22;12036;50.858;4.472;2023-09-18T05:08:01;19.10;99.90
23715;DHT22;12036;50.858;4.472;2023-09-18T05:10:28;19.10;99.90
23715;DHT22;12036;50.858;4.472;2023-09-18T05:12:54;19.10;99.90
23715;DHT22;12036;50.858;4.472;2023-09-18T05:15:24;19.10;99.90
23715;DHT22;12036;50.858;4.472;2023-09-18T05:17:52;19.10;99.90
23715;DHT22;12036;50.858;4.472;2023-09-18T05:20:21;19.10;99.90
23715;DHT22;12036;50.858;4.472;2023-09-18T05:22:50;19.10;99.90
23715;DHT22;12036;50.858;4.472;2023-09-18T05:25:18;19.10;99.90
23715;DHT22;12036;50.858;4.472;2023-09-18T05:27:44;19.00;99.90
23715;DHT22;12036;50.858;4.472;2023-09-18T05:30:18;19.10;99.90
23715;DHT22;12036;50.858;4.472;2023-09-18T05:32:47;19.00;99.90
23715;DHT22;12036;50.858;4.472;2023-09-18T05:35:13;19.00;99.90
23715;DHT22;12036;50.858;4.472;2023-09-18T05:37:39;19.00;99.90
23715;DHT22;12036;50.858;4.472;2023-09-18T05:40:07;19.00;99.90
23715;DHT22;12036;50.858;4.472;2023-09-18T05:42:38;19.00;99.90
23715;DHT22;12036;50.858;4.472;2023-09-18T05:45:05;19.00;99.90
23715;DHT22;12036;50.858;4.472;2023-09-18T05:47:34;18.90;99.90
23715;DHT22;12036;50.858;4.472;2023-09-18T05:50:11;19.00;99.90
23715;DHT22;12036;50.858;4.472;2023-09-18T05:52:42;18.90;99.90
23715;DHT22;12036;50.858;4.472;2023-09-18T05:55:08;18.90;99.90
23715;DHT22;12036;50.858;4.472;2023-09-18T05:57:34;18.90;99.90
23715;DHT22;12036;50.858;4.472;2023-09-18T06:00:00;18.90;99.90
23715;DHT22;12036;50.858;4.472;2023-09-18T06:02:25;18.90;99.90
23715;DHT22;12036;50.858;4.472;2023-09-18T06:04:59;18.90;99.90
23715;DHT22;12036;50.858;4.472;2023-09-18T06:07:28;18.90;99.90
23715;DHT22;12036;50.858;4.472;2023-09-18T06:09:54;18.90;99.90
23715;DHT22;12036;50.858;4.472;2023-09-18T06:12:20;18.80;99.90
23715;DHT22;12036;50.858;4.472;2023-09-18T06:14:46;18.90;99.90
23715;DHT22;12036;50.858;4.472;2023-09-18T06:17:14;18.90;99.90
23715;DHT22;12036;50.858;4.472;2023-09-18T06:19:43;18.90;99.90
23715;DHT22;12036;50.858;4.472;2023-09-18T06:22:09;18.90;99.90
23715;DHT22;12036;50.858;4.472;2023-09-18T06:24:35;19.00;99.90
23715;DHT22;12036;50.858;4.472;2023-09-18T06:27:01;19.00;99.90
23715;DHT22;12036;50.858;4.472;2023-09-18T06:29:27;19.00;99.90
23715;DHT22;12036;50.858;4.472;2023-09-18T06:31:53;19.00;99.90
23715;DHT22;12036;50.858;4.472;2023-09-18T06:34:18;19.00;99.90
23715;DHT22;12036;50.858;4.472;2023-09-18T06:36:44;18.90;99.90
23715;DHT22;12036;50.858;4.472;2023-09-18T06:39:10;19.00;99.90
23715;DHT22;12036;50.858;4.472;2023-09-18T06:41:35;19.00;99.90
23715;DHT22;12036;50.858;4.472;2023-09-18T06:44:02;19.00;99.90
23715;DHT22;12036;50.858;4.472;2023-09-18T06:46:29;19.00;99.90
23715;DHT22;12036;50.858;4.472;2023-09-18T06:48:55;19.00;99.90
23715;DHT22;12036;50.858;4.472;2023-09-18T06:51:22;19.00;99.90
23715;DHT22;12036;50.858;4.472;2023-09-18T06:53:48;19.00;99.90
23715;DHT22;12036;50.858;4.472;2023-09-18T06:56:13;19.10;99.90
23715;DHT22;12036;50.858;4.472;2023-09-18T06:58:39;19.10;99.90
23715;DHT22;12036;50.858;4.472;2023-09-18T07:01:04;19.10;99.90
23715;DHT22;12036;50.858;4.472;2023-09-18T07:03:32;19.20;99.90
23715;DHT22;12036;50.858;4.472;2023-09-18T07:06:00;19.20;99.90
23715;DHT22;12036;50.858;4.472;2023-09-18T07:08:26;19.30;99.90
23715;DHT22;12036;50.858;4.472;2023-09-18T07:10:52;19.10;99.90
23715;DHT22;12036;50.858;4.472;2023-09-18T07:13:18;19.10;99.90
23715;DHT22;12036;50.858;4.472;2023-09-18T07:15:43;19.00;99.90
23715;DHT22;12036;50.858;4.472;2023-09-18T07:18:10;19.10;99.90
23715;DHT22;12036;50.858;4.472;2023-09-18T07:20:45;19.00;99.90
23715;DHT22;12036;50.858;4.472;2023-09-18T07:23:11;19.00;99.90
23715;DHT22;12036;50.858;4.472;2023-09-18T07:25:36;19.00;99.90
23715;DHT22;12036;50.858;4.472;2023-09-18T07:28:06;19.00;99.90
23715;DHT22;12036;50.858;4.472;2023-09-18T07:30:32;19.00;99.90
23715;DHT22;12036;50.858;4.472;2023-09-18T07:32:59;19.10;99.90
23715;DHT22;12036;50.858;4.472;2023-09-18T07:35:26;19.20;99.90
23715;DHT22;12036;50.858;4.472;2023-09-18T07:37:51;19.10;99.90
23715;DHT22;12036;50.858;4.472;2023-09-18T07:40:17;19.20;99.90
23715;DHT22;12036;50.858;4.472;2023-09-18T07:42:43;19.50;99.90
23715;DHT22;12036;50.858;4.472;2023-09-18T07:45:12;20.20;99.90
23715;DHT22;12036;50.858;4.472;2023-09-18T07:47:37;21.40;99.90
23715;DHT22;12036;50.858;4.472;2023-09-18T07:50:03;22.20;99.90
23715;DHT22;12036;50.858;4.472;2023-09-18T07:52:30;22.10;99.90
23715;DHT22;12036;50.858;4.472;2023-09-18T07:54:57;21.80;99.90
23715;DHT22;12036;50.858;4.472;2023-09-18T07:57:24;21.40;99.90
23715;DHT22;12036;50.858;4.472;2023-09-18T07:59:50;21.10;99.90
23715;DHT22;12036;50.858;4.472;2023-09-18T08:02:16;20.80;99.90
23715;DHT22;12036;50.858;4.472;2023-09-18T08:04:43;20.50;99.90
23715;DHT22;12036;50.858;4.472;2023-09-18T08:07:09;20.50;99.90
23715;DHT22;12036;50.858;4.472;2023-09-18T08:09:34;20.60;99.90
23715;DHT22;12036;50.858;4.472;2023-09-18T08:12:02;20.60;99.90
23715;DHT22;12036;50.858;4.472;2023-09-18T08:14:28;20.50;99.90
23715;DHT22;12036;50.858;4.472;2023-09-18T08:16:58;20.60;99.90
23715;DHT22;12036;50.858;4.472;2023-09-18T08:19:24;20.80;99.90
23715;DHT22;12036;50.858;4.472;2023-09-18T08:21:54;20.90;99.90
23715;DHT22;12036;50.858;4.472;2023-09-18T08:24:22;21.10;99.90
23715;DHT22;12036;50.858;4.472;2023-09-18T08:26:48;21.30;99.90
23715;DHT22;12036;50.858;4.472;2023-09-18T08:29:14;21.20;99.90
23715;DHT22;12036;50.858;4.472;2023-09-18T08:31:39;21.20;99.90
23715;DHT22;12036;50.858;4.472;2023-09-18T08:34:05;21.10;99.90
23715;DHT22;12036;50.858;4.472;2023-09-18T08:36:31;21.10;99.90
23715;DHT22;12036;50.858;4.472;2023-09-18T08:38:57;21.10;99.90
23715;DHT22;12036;50.858;4.472;2023-09-18T08:41:24;20.90;99.90
23715;DHT22;12036;50.858;4.472;2023-09-18T08:43:59;20.90;99.90
23715;DHT22;12036;50.858;4.472;2023-09-18T08:46:25;20.80;99.90
23715;DHT22;12036;50.858;4.472;2023-09-18T08:48:51;20.70;99.90
23715;DHT22;12036;50.858;4.472;2023-09-18T08:51:18;20.70;99.90
23715;DHT22;12036;50.858;4.472;2023-09-18T08:53:46;20.60;99.90
23715;DHT22;12036;50.858;4.472;2023-09-18T08:56:13;20.60;99.90
23715;DHT22;12036;50.858;4.472;2023-09-18T08:58:40;20.50;99.90
23715;DHT22;12036;50.858;4.472;2023-09-18T09:01:09;20.50;99.90
23715;DHT22;12036;50.858;4.472;2023-09-18T09:03:42;20.50;99.90
23715;DHT22;12036;50.858;4.472;2023-09-18T09:06:09;20.50;99.90
23715;DHT22;12036;50.858;4.472;2023-09-18T09:08:36;20.50;99.90
23715;DHT22;12036;50.858;4.472;2023-09-18T09:11:02;20.60;99.90
23715;DHT22;12036;50.858;4.472;2023-09-18T09:13:28;20.70;99.90
23715;DHT22;12036;50.858;4.472;2023-09-18T09:15:56;20.70;99.90
23715;DHT22;12036;50.858;4.472;2023-09-18T09:18:27;20.60;99.90
23715;DHT22;12036;50.858;4.472;2023-09-18T09:20:58;20.70;99.90
23715;DHT22;12036;50.858;4.472;2023-09-18T09:23:26;20.60;99.90
23715;DHT22;12036;50.858;4.472;2023-09-18T09:25:52;20.60;99.90
23715;DHT22;12036;50.858;4.472;2023-09-18T09:28:29;20.50;99.90
23715;DHT22;12036;50.858;4.472;2023-09-18T09:31:05;20.50;99.90
23715;DHT22;12036;50.858;4.472;2023-09-18T09:33:31;20.60;99.90
23715;DHT22;12036;50.858;4.472;2023-09-18T09:35:57;20.70;99.90
23715;DHT22;12036;50.858;4.472;2023-09-18T09:38:30;20.60;99.90
23715;DHT22;12036;50.858;4.472;2023-09-18T09:41:04;20.60;99.90
23715;DHT22;12036;50.858;4.472;2023-09-18T09:43:32;20.60;99.90
23715;DHT22;12036;50.858;4.472;2023-09-18T09:46:01;20.90;99.90
23715;DHT22;12036;50.858;4.472;2023-09-18T09:48:28;20.90;99.90
23715;DHT22;12036;50.858;4.472;2023-09-18T09:51:00;21.10;99.90
23715;DHT22;12036;50.858;4.472;2023-09-18T09:53:45;21.00;99.90
23715;DHT22;12036;50.858;4.472;2023-09-18T09:56:13;21.10;99.90
23715;DHT22;12036;50.858;4.472;2023-09-18T09:58:39;21.00;99.90
23715;DHT22;12036;50.858;4.472;2023-09-18T10:01:11;21.00;99.90
23715;DHT22;12036;50.858;4.472;2023-09-18T10:03:44;21.10;99.90
23715;DHT22;12036;50.858;4.472;2023-09-18T10:06:11;20.90;99.90
23715;DHT22;12036;50.858;4.472;2023-09-18T10:08:40;21.00;99.90
23715;DHT22;12036;50.858;4.472;2023-09-18T10:11:07;21.00;99.90
23715;DHT22;12036;50.858;4.472;2023-09-18T10:13:46;20.90;99.90
23715;DHT22;12036;50.858;4.472;2023-09-18T10:16:13;20.90;99.90
23715;DHT22;12036;50.858;4.472;2023-09-18T10:19:02;20.90;99.90
23715;DHT22;12036;50.858;4.472;2023-09-18T10:27:02;20.80;99.90
23715;DHT22;12036;50.858;4.472;2023-09-18T10:29:30;20.80;99.90
23715;DHT22;12036;50.858;4.472;2023-09-18T10:31:56;20.90;99.90
23715;DHT22;12036;50.858;4.472;2023-09-18T10:34:23;21.00;99.90
23715;DHT22;12036;50.858;4.472;2023-09-18T10:36:53;20.90;99.90
23715;DHT22;12036;50.858;4.472;2023-09-18T10:39:20;20.90;99.90
23715;DHT22;12036;50.858;4.472;2023-09-18T10:41:52;20.80;99.90
23715;DHT22;12036;50.858;4.472;2023-09-18T10:44:18;20.80;99.90
23715;DHT22;12036;50.858;4.472;2023-09-18T10:46:48;20.90;99.90
23715;DHT22;12036;50.858;4.472;2023-09-18T10:49:15;21.00;99.90
23715;DHT22;12036;50.858;4.472;2023-09-18T10:51:41;21.20;99.90
23715;DHT22;12036;50.858;4.472;2023-09-18T10:54:13;21.40;99.90
23715;DHT22;12036;50.858;4.472;2023-09-18T10:56:43;21.40;99.90
23715;DHT22;12036;50.858;4.472;2023-09-18T10:59:09;21.80;99.90
23715;DHT22;12036;50.858;4.472;2023-09-18T11:01:36;22.50;99.90
23715;DHT22;12036;50.858;4.472;2023-09-18T11:04:04;23.20;99.90
23715;DHT22;12036;50.858;4.472;2023-09-18T11:09:24;23.60;99.90
23715;DHT22;12036;50.858;4.472;2023-09-18T11:14:40;23.90;99.90
23715;DHT22;12036;50.858;4.472;2023-09-18T11:17:39;24.10;99.90
23715;DHT22;12036;50.858;4.472;2023-09-18T11:22:59;24.00;99.90
23715;DHT22;12036;50.858;4.472;2023-09-18T11:25:40;24.20;99.90
23715;DHT22;12036;50.858;4.472;2023-09-18T11:28:13;23.70;99.90
23715;DHT22;12036;50.858;4.472;2023-09-18T11:30:50;23.80;99.90
23715;DHT22;12036;50.858;4.472;2023-09-18T11:33:38;23.80;99.90
23715;DHT22;12036;50.858;4.472;2023-09-18T11:36:09;23.90;99.90
23715;DHT22;12036;50.858;4.472;2023-09-18T11:38:54;23.80;99.90
23715;DHT22;12036;50.858;4.472;2023-09-18T11:41:28;24.00;99.90
23715;DHT22;12036;50.858;4.472;2023-09-18T11:46:40;23.60;99.90
23715;DHT22;12036;50.858;4.472;2023-09-18T11:49:11;23.40;99.90
23715;DHT22;12036;50.858;4.472;2023-09-18T11:51:37;23.30;99.90
23715;DHT22;12036;50.858;4.472;2023-09-18T11:54:07;23.10;99.90
23715;DHT22;12036;50.858;4.472;2023-09-18T11:56:33;23.30;99.90
23715;DHT22;12036;50.858;4.472;2023-09-18T11:58:59;23.50;99.90
23715;DHT22;12036;50.858;4.472;2023-09-18T12:01:25;23.60;99.90
23715;DHT22;12036;50.858;4.472;2023-09-18T12:04:00;23.60;99.90
23715;DHT22;12036;50.858;4.472;2023-09-18T12:06:26;23.70;99.90
23715;DHT22;12036;50.858;4.472;2023-09-18T12:08:54;23.70;99.90
23715;DHT22;12036;50.858;4.472;2023-09-18T12:11:22;23.70;99.90
23715;DHT22;12036;50.858;4.472;2023-09-18T12:13:51;23.80;99.90
23715;DHT22;12036;50.858;4.472;2023-09-18T12:16:16;24.00;99.90
23715;DHT22;12036;50.858;4.472;2023-09-18T12:18:49;24.00;99.90
23715;DHT22;12036;50.858;4.472;2023-09-18T12:21:16;24.10;99.90
23715;DHT22;12036;50.858;4.472;2023-09-18T12:23:44;24.00;99.90
23715;DHT22;12036;50.858;4.472;2023-09-18T12:26:14;24.10;99.90
23715;DHT22;12036;50.858;4.472;2023-09-18T12:28:43;24.30;99.90
23715;DHT22;12036;50.858;4.472;2023-09-18T12:31:16;24.50;99.90
23715;DHT22;12036;50.858;4.472;2023-09-18T12:33:43;24.50;99.90
23715;DHT22;12036;50.858;4.472;2023-09-18T12:36:09;24.60;99.90
23715;DHT22;12036;50.858;4.472;2023-09-18T12:38:36;24.40;99.90
23715;DHT22;12036;50.858;4.472;2023-09-18T12:41:03;24.40;99.90
23715;DHT22;12036;50.858;4.472;2023-09-18T12:43:37;24.50;99.90
23715;DHT22;12036;50.858;4.472;2023-09-18T12:46:06;24.40;99.90
23715;DHT22;12036;50.858;4.472;2023-09-18T12:48:32;24.50;99.90
23715;DHT22;12036;50.858;4.472;2023-09-18T12:51:05;24.50;99.90
23715;DHT22;12036;50.858;4.472;2023-09-18T12:53:31;24.70;99.90
23715;DHT22;12036;50.858;4.472;2023-09-18T12:56:13;24.90;99.90
23715;DHT22;12036;50.858;4.472;2023-09-18T12:58:40;25.10;99.90
23715;DHT22;12036;50.858;4.472;2023-09-18T13:01:07;25.00;99.90
23715;DHT22;12036;50.858;4.472;2023-09-18T13:03:35;25.10;99.90
23715;DHT22;12036;50.858;4.472;2023-09-18T13:06:11;25.10;99.90
23715;DHT22;12036;50.858;4.472;2023-09-18T13:08:37;25.20;99.80
23715;DHT22;12036;50.858;4.472;2023-09-18T13:11:03;25.20;99.30
23715;DHT22;12036;50.858;4.472;2023-09-18T13:13:30;25.40;99.70
23715;DHT22;12036;50.858;4.472;2023-09-18T13:16:00;25.40;97.80
23715;DHT22;12036;50.858;4.472;2023-09-18T13:18:26;25.50;98.20
23715;DHT22;12036;50.858;4.472;2023-09-18T13:20:53;25.60;97.20
23715;DHT22;12036;50.858;4.472;2023-09-18T13:23:19;25.50;97.30
23715;DHT22;12036;50.858;4.472;2023-09-18T13:25:45;25.40;97.10
23715;DHT22;12036;50.858;4.472;2023-09-18T13:28:13;25.30;97.00
23715;DHT22;12036;50.858;4.472;2023-09-18T13:30:41;25.10;97.10
23715;DHT22;12036;50.858;4.472;2023-09-18T13:33:12;25.10;97.90
23715;DHT22;12036;50.858;4.472;2023-09-18T13:35:39;25.20;97.70
23715;DHT22;12036;50.858;4.472;2023-09-18T13:38:06;25.30;98.30
23715;DHT22;12036;50.858;4.472;2023-09-18T13:40:34;25.40;98.20
23715;DHT22;12036;50.858;4.472;2023-09-18T13:43:01;25.50;97.30
23715;DHT22;12036;50.858;4.472;2023-09-18T13:45:29;25.40;96.70
23715;DHT22;12036;50.858;4.472;2023-09-18T13:47:55;25.20;97.30
23715;DHT22;12036;50.858;4.472;2023-09-18T13:50:21;25.20;98.10
23715;DHT22;12036;50.858;4.472;2023-09-18T13:52:47;25.20;97.30
23715;DHT22;12036;50.858;4.472;2023-09-18T13:55:12;24.90;96.50
23715;DHT22;12036;50.858;4.472;2023-09-18T13:57:38;24.70;96.90
23715;DHT22;12036;50.858;4.472;2023-09-18T14:00:06;24.70;97.00
23715;DHT22;12036;50.858;4.472;2023-09-18T14:02:33;24.60;97.10
23715;DHT22;12036;50.858;4.472;2023-09-18T14:04:59;24.70;97.80
23715;DHT22;12036;50.858;4.472;2023-09-18T14:07:25;24.80;97.20
23715;DHT22;12036;50.858;4.472;2023-09-18T14:09:50;24.90;96.80
23715;DHT22;12036;50.858;4.472;2023-09-18T14:12:16;25.00;96.60
23715;DHT22;12036;50.858;4.472;2023-09-18T14:14:42;24.90;96.10
23715;DHT22;12036;50.858;4.472;2023-09-18T14:17:10;24.70;96.30
23715;DHT22;12036;50.858;4.472;2023-09-18T14:19:35;24.50;96.90
23715;DHT22;12036;50.858;4.472;2023-09-18T14:22:04;24.40;96.90
23715;DHT22;12036;50.858;4.472;2023-09-18T14:24:31;24.30;97.20
23715;DHT22;12036;50.858;4.472;2023-09-18T14:26:57;24.20;97.40
23715;DHT22;12036;50.858;4.472;2023-09-18T14:29:22;24.10;97.60
23715;DHT22;12036;50.858;4.472;2023-09-18T14:31:48;24.00;98.10
23715;DHT22;12036;50.858;4.472;2023-09-18T14:34:14;23.70;98.30
23715;DHT22;12036;50.858;4.472;2023-09-18T14:36:39;23.80;98.70
23715;DHT22;12036;50.858;4.472;2023-09-18T14:39:06;23.60;98.60
23715;DHT22;12036;50.858;4.472;2023-09-18T14:41:34;23.60;98.90
23715;DHT22;12036;50.858;4.472;2023-09-18T14:44:00;23.40;99.10
23715;DHT22;12036;50.858;4.472;2023-09-18T14:46:26;23.30;99.90
23715;DHT22;12036;50.858;4.472;2023-09-18T14:48:51;23.00;99.90
23715;DHT22;12036;50.858;4.472;2023-09-18T14:51:17;22.40;99.90
23715;DHT22;12036;50.858;4.472;2023-09-18T14:53:43;21.40;99.90
23715;DHT22;12036;50.858;4.472;2023-09-18T14:56:09;20.50;99.90
23715;DHT22;12036;50.858;4.472;2023-09-18T14:58:35;20.00;99.90
23715;DHT22;12036;50.858;4.472;2023-09-18T15:01:00;19.60;99.90
23715;DHT22;12036;50.858;4.472;2023-09-18T15:03:26;19.50;99.90
23715;DHT22;12036;50.858;4.472;2023-09-18T15:05:52;19.30;99.90
23715;DHT22;12036;50.858;4.472;2023-09-18T15:08:18;19.20;99.90
23715;DHT22;12036;50.858;4.472;2023-09-18T15:10:45;19.20;99.90
23715;DHT22;12036;50.858;4.472;2023-09-18T15:13:11;19.30;99.90
23715;DHT22;12036;50.858;4.472;2023-09-18T15:15:39;19.40;99.90
23715;DHT22;12036;50.858;4.472;2023-09-18T15:18:05;19.40;99.90
23715;DHT22;12036;50.858;4.472;2023-09-18T15:20:31;19.40;99.90
23715;DHT22;12036;50.858;4.472;2023-09-18T15:22:56;19.60;99.90
23715;DHT22;12036;50.858;4.472;2023-09-18T15:25:22;19.70;99.90
23715;DHT22;12036;50.858;4.472;2023-09-18T15:27:48;19.80;99.90
23715;DHT22;12036;50.858;4.472;2023-09-18T15:30:14;19.80;99.90
23715;DHT22;12036;50.858;4.472;2023-09-18T15:32:51;20.10;99.90
23715;DHT22;12036;50.858;4.472;2023-09-18T15:35:22;20.30;99.90
23715;DHT22;12036;50.858;4.472;2023-09-18T15:37:52;20.40;99.90
23715;DHT22;12036;50.858;4.472;2023-09-18T15:40:19;20.40;99.90
23715;DHT22;12036;50.858;4.472;2023-09-18T15:42:46;20.30;99.90
23715;DHT22;12036;50.858;4.472;2023-09-18T15:45:13;20.30;99.90
23715;DHT22;12036;50.858;4.472;2023-09-18T15:47:41;20.30;99.90
23715;DHT22;12036;50.858;4.472;2023-09-18T15:50:08;20.30;99.90